Time;durP1;ratioP1;P1;durP2;ratioP2;P2;SDS_P1;SDS_P2;PMS_P1;PMS_P2;Temp;Humidity;BMP_temperature;BMP_pressure;BME280_temperature;BME280_humidity;BME280_pressure;Samples;Min_cycle;Max_cycle;Signal;HPM_P1;HPM_P2
2022/04/16 00:01:53;;;;;;;29.47;15.73;;;5.70;99.90;;;;;;5014297;28;20639;-80
2022/04/16 00:04:19;;;;;;;30.47;15.73;;;5.70;99.90;;;;;;5014669;28;20245;-81
2022/04/16 00:06:45;;;;;;;33.90;15.47;;;5.60;99.90;;;;;;5014380;28;20286;-81
2022/04/16 00:09:11;;;;;;;27.73;15.07;;;5.70;99.90;;;;;;5014575;28;20181;-81
2022/04/16 00:11:38;;;;;;;33.50;15.43;;;5.60;99.90;;;;;;5015425;28;20173;-81
2022/04/16 00:14:04;;;;;;;29.67;14.93;;;5.60;99.90;;;;;;5018014;28;20205;-81
2022/04/16 00:16:31;;;;;;;30.50;15.20;;;5.60;99.90;;;;;;5017984;28;20191;-81
2022/04/16 00:18:56;;;;;;;30.47;15.13;;;5.60;99.90;;;;;;5017780;28;20920;-81
2022/04/16 00:21:23;;;;;;;25.87;14.50;;;5.50;99.90;;;;;;5018066;28;20258;-81
2022/04/16 00:23:49;;;;;;;32.47;16.43;;;5.50;99.90;;;;;;5018299;28;20602;-81
2022/04/16 00:26:15;;;;;;;34.40;15.97;;;5.50;99.90;;;;;;5017769;28;20300;-81
2022/04/16 00:28:40;;;;;;;34.20;16.70;;;5.40;99.90;;;;;;5017937;28;20704;-81
2022/04/16 00:31:06;;;;;;;36.43;17.53;;;5.50;99.90;;;;;;5017965;28;20234;-82
2022/04/16 00:33:33;;;;;;;32.13;16.10;;;5.50;99.90;;;;;;5017972;28;20205;-81
2022/04/16 00:36:02;;;;;;;30.77;16.23;;;5.50;99.90;;;;;;5018381;28;20203;-81
2022/04/16 00:38:28;;;;;;;37.40;17.90;;;5.60;99.90;;;;;;5018460;28;20654;-81
2022/04/16 00:40:55;;;;;;;37.73;17.83;;;5.60;99.90;;;;;;5018406;28;20174;-81
2022/04/16 00:43:27;;;;;;;34.37;17.73;;;5.60;99.90;;;;;;5018127;28;20180;-81
2022/04/16 00:45:54;;;;;;;32.97;16.43;;;5.50;99.90;;;;;;5018604;28;20197;-81
2022/04/16 00:48:23;;;;;;;33.67;16.90;;;5.50;99.90;;;;;;5018086;28;20240;-82
2022/04/16 00:50:59;;;;;;;34.87;16.27;;;5.50;99.90;;;;;;5018482;28;20214;-81
2022/04/16 00:53:27;;;;;;;33.90;16.23;;;5.60;99.90;;;;;;5018208;28;20197;-81
2022/04/16 00:55:53;;;;;;;40.00;18.40;;;5.60;99.90;;;;;;5017907;28;20244;-81
2022/04/16 00:58:19;;;;;;;32.60;16.63;;;5.50;99.90;;;;;;5018413;28;20173;-81
2022/04/16 01:00:44;;;;;;;37.27;17.93;;;5.60;99.90;;;;;;5018017;28;20173;-82
2022/04/16 01:03:10;;;;;;;38.07;18.60;;;5.50;99.90;;;;;;5017990;28;20552;-81
2022/04/16 01:05:37;;;;;;;32.93;16.53;;;5.50;99.90;;;;;;5018084;28;20658;-81
2022/04/16 01:08:04;;;;;;;36.83;17.00;;;5.50;99.90;;;;;;5018556;28;20180;-81
2022/04/16 01:10:32;;;;;;;35.77;17.50;;;5.50;99.90;;;;;;5017808;28;20174;-81
2022/04/16 01:13:00;;;;;;;35.37;16.70;;;5.40;99.90;;;;;;5017691;28;20204;-81
2022/04/16 01:15:29;;;;;;;34.83;18.03;;;5.50;99.90;;;;;;5017333;28;20263;-82
2022/04/16 01:17:55;;;;;;;39.77;18.80;;;5.50;99.90;;;;;;5016645;28;20226;-80
2022/04/16 01:20:22;;;;;;;37.53;18.07;;;5.40;99.90;;;;;;5017365;28;20632;-81
2022/04/16 01:22:50;;;;;;;39.90;18.10;;;5.40;99.90;;;;;;5016642;28;20182;-82
2022/04/16 01:25:18;;;;;;;39.17;19.43;;;5.40;99.90;;;;;;5017469;28;20196;-81
2022/04/16 01:27:46;;;;;;;42.67;19.07;;;5.40;99.90;;;;;;5017651;28;20180;-81
2022/04/16 01:30:17;;;;;;;40.07;18.57;;;5.30;99.90;;;;;;5017465;28;20177;-80
2022/04/16 01:32:42;;;;;;;37.73;18.87;;;5.30;99.90;;;;;;5016935;28;20201;-81
2022/04/16 01:35:09;;;;;;;43.60;18.63;;;5.20;99.90;;;;;;5016571;28;20181;-81
2022/04/16 01:37:35;;;;;;;37.30;18.43;;;5.20;99.90;;;;;;5016435;28;20524;-81
2022/04/16 01:40:02;;;;;;;39.03;18.67;;;5.30;99.90;;;;;;5016309;28;20183;-83
2022/04/16 01:42:32;;;;;;;42.70;19.67;;;5.30;99.90;;;;;;5034121;28;20218;-81
2022/04/16 01:45:05;;;;;;;43.87;19.70;;;5.20;99.90;;;;;;5016160;28;20180;-80
2022/04/16 01:47:34;;;;;;;37.30;17.87;;;5.30;99.90;;;;;;5016306;28;20166;-82
2022/04/16 01:50:00;;;;;;;39.43;18.50;;;5.20;99.90;;;;;;5016236;28;20264;-81
2022/04/16 01:52:26;;;;;;;42.93;18.60;;;5.20;99.90;;;;;;5016002;28;20273;-81
2022/04/16 01:54:52;;;;;;;42.47;19.27;;;5.20;99.90;;;;;;5016212;28;20296;-80
2022/04/16 01:57:19;;;;;;;42.47;18.80;;;5.20;99.90;;;;;;5016007;28;20276;-81
2022/04/16 01:59:46;;;;;;;42.83;18.23;;;5.20;99.90;;;;;;5016091;28;20623;-81
2022/04/16 02:02:12;;;;;;;39.90;17.80;;;5.20;99.90;;;;;;5015571;28;20171;-82
2022/04/16 02:04:38;;;;;;;40.10;18.47;;;5.20;99.90;;;;;;5016419;28;20668;-81
2022/04/16 02:07:03;;;;;;;43.83;18.90;;;5.30;99.90;;;;;;5016240;28;20200;-80
2022/04/16 02:09:29;;;;;;;37.70;18.20;;;5.20;99.90;;;;;;5016291;28;20183;-80
2022/04/16 02:11:55;;;;;;;35.33;17.93;;;5.10;99.90;;;;;;5016196;28;20688;-81
2022/04/16 02:14:23;;;;;;;40.77;19.03;;;5.10;99.90;;;;;;5015929;28;20220;-80
2022/04/16 02:16:49;;;;;;;37.33;16.77;;;5.10;99.90;;;;;;5015269;28;20256;-81
2022/04/16 02:19:15;;;;;;;43.27;19.90;;;5.00;99.90;;;;;;5015867;28;20655;-81
2022/04/16 02:21:42;;;;;;;41.73;19.33;;;5.00;99.90;;;;;;5033633;28;20174;-80
2022/04/16 02:24:08;;;;;;;41.27;18.67;;;5.10;99.90;;;;;;5016035;28;20569;-81
2022/04/16 02:26:33;;;;;;;38.43;18.77;;;5.00;99.90;;;;;;5016202;28;20210;-80
2022/04/16 02:29:00;;;;;;;37.97;18.37;;;5.00;99.90;;;;;;5015912;28;20193;-80
2022/04/16 02:31:28;;;;;;;38.90;19.03;;;5.00;99.90;;;;;;5015866;28;20201;-80
2022/04/16 02:33:57;;;;;;;39.20;19.23;;;5.10;99.90;;;;;;5015616;28;20210;-80
2022/04/16 02:36:26;;;;;;;38.37;19.43;;;5.00;99.90;;;;;;5016238;28;20211;-82
2022/04/16 02:38:54;;;;;;;44.90;19.63;;;5.00;99.90;;;;;;5016084;28;20656;-81
2022/04/16 02:41:20;;;;;;;45.73;19.43;;;5.00;99.90;;;;;;5016143;28;20167;-81
2022/04/16 02:43:46;;;;;;;44.03;20.20;;;5.20;99.90;;;;;;5015865;28;20282;-81
2022/04/16 02:48:56;;;;;;;49.10;21.63;;;5.40;99.90;;;;;;5033992;28;20593;-81
2022/04/16 02:51:22;;;;;;;50.93;21.83;;;5.50;99.90;;;;;;5015819;28;20183;-81
2022/04/16 02:53:49;;;;;;;54.53;22.13;;;5.60;99.90;;;;;;5015990;28;20204;-81
2022/04/16 02:56:15;;;;;;;56.33;22.77;;;5.50;99.90;;;;;;5015734;28;20787;-81
2022/04/16 02:58:40;;;;;;;51.27;22.03;;;5.50;99.90;;;;;;5015932;28;20181;-81
2022/04/16 03:01:06;;;;;;;52.37;21.60;;;5.40;99.90;;;;;;5015953;28;20542;-80
2022/04/16 03:03:32;;;;;;;50.33;22.20;;;5.40;99.90;;;;;;5015602;28;20174;-81
2022/04/16 03:05:58;;;;;;;46.07;21.20;;;5.40;99.90;;;;;;5015901;28;20197;-82
2022/04/16 03:08:24;;;;;;;46.10;20.10;;;5.30;99.90;;;;;;5015655;28;20591;-80
2022/04/16 03:10:54;;;;;;;49.23;20.80;;;5.30;99.90;;;;;;5015640;28;20174;-81
2022/04/16 03:13:20;;;;;;;54.63;21.57;;;5.40;99.90;;;;;;5015514;28;20212;-82
2022/04/16 03:18:29;;;;;;;56.73;24.33;;;5.80;99.90;;;;;;5033281;28;20207;-83
2022/04/16 03:20:57;;;;;;;54.73;22.33;;;5.70;99.90;;;;;;5015461;28;20174;-83
2022/04/16 03:23:23;;;;;;;54.80;22.90;;;5.80;99.90;;;;;;5015392;28;20184;-81
2022/04/16 03:25:49;;;;;;;60.47;24.17;;;5.90;99.90;;;;;;5015385;28;20197;-81
2022/04/16 03:28:15;;;;;;;57.80;24.53;;;5.90;99.90;;;;;;5015520;28;20186;-81
2022/04/16 03:30:41;;;;;;;58.77;23.60;;;5.90;99.90;;;;;;5014942;28;20544;-81
2022/04/16 03:33:08;;;;;;;60.27;24.13;;;5.90;99.90;;;;;;5014997;28;20652;-81
2022/04/16 03:35:35;;;;;;;60.73;23.23;;;5.90;99.90;;;;;;5014784;28;20214;-81
2022/04/16 03:38:01;;;;;;;63.17;23.90;;;6.00;99.90;;;;;;5014850;28;20174;-81
2022/04/16 03:40:27;;;;;;;63.63;24.67;;;5.90;99.90;;;;;;5014832;28;20179;-81
2022/04/16 03:43:00;;;;;;;66.57;24.00;;;6.00;99.90;;;;;;5014521;28;20686;-81
2022/04/16 03:45:29;;;;;;;62.53;24.50;;;6.00;99.90;;;;;;5015227;28;20195;-82
2022/04/16 03:47:56;;;;;;;65.33;24.60;;;6.00;99.90;;;;;;5018683;28;20182;-82
2022/04/16 03:50:24;;;;;;;65.20;25.17;;;6.00;99.90;;;;;;5019239;28;20172;-81
2022/04/16 03:52:50;;;;;;;72.23;25.90;;;6.00;99.90;;;;;;5018674;28;20698;-81
2022/04/16 04:00:47;;;;;;;66.10;24.57;;;6.10;99.90;;;;;;5036723;28;20180;-81
2022/04/16 04:03:14;;;;;;;68.87;25.67;;;6.10;99.90;;;;;;5018571;28;20169;-82
2022/04/16 04:05:40;;;;;;;71.37;27.13;;;6.30;99.90;;;;;;5018455;28;20191;-81
2022/04/16 04:08:07;;;;;;;72.63;25.33;;;6.30;99.90;;;;;;5018466;28;20270;-81
2022/04/16 04:10:34;;;;;;;73.70;26.90;;;6.30;99.90;;;;;;5018349;28;20597;-82
2022/04/16 04:13:00;;;;;;;73.07;27.13;;;6.30;99.90;;;;;;5018398;28;20200;-81
2022/04/16 04:15:27;;;;;;;68.30;27.50;;;6.30;99.90;;;;;;5018322;28;20682;-81
2022/04/16 04:17:53;;;;;;;74.20;26.97;;;6.20;99.90;;;;;;5017730;28;20202;-81
2022/04/16 04:20:19;;;;;;;69.50;26.37;;;6.30;99.90;;;;;;5036181;28;20160;-81
2022/04/16 04:22:45;;;;;;;72.10;25.83;;;6.20;99.90;;;;;;5018100;28;20207;-81
2022/04/16 04:25:10;;;;;;;59.63;24.80;;;6.20;99.90;;;;;;5018488;28;20265;-81
2022/04/16 04:27:36;;;;;;;66.30;25.27;;;6.10;99.90;;;;;;5018263;28;20169;-80
2022/04/16 04:30:04;;;;;;;66.77;25.57;;;6.10;99.90;;;;;;5017858;28;20181;-81
2022/04/16 04:32:30;;;;;;;60.27;25.37;;;6.10;99.90;;;;;;5018415;28;20173;-81
2022/04/16 04:34:56;;;;;;;58.60;24.90;;;6.10;99.90;;;;;;5017684;28;20184;-81
2022/04/16 04:37:22;;;;;;;60.70;24.50;;;6.00;99.90;;;;;;5017840;28;20220;-81
2022/04/16 04:39:48;;;;;;;61.77;25.17;;;6.00;99.90;;;;;;5017758;28;20216;-81
2022/04/16 04:42:26;;;;;;;61.03;25.43;;;6.10;99.90;;;;;;5017593;28;20178;-81
2022/04/16 04:44:52;;;;;;;59.53;23.50;;;6.10;99.90;;;;;;5017211;28;20177;-81
2022/04/16 04:47:18;;;;;;;59.67;25.27;;;6.10;99.90;;;;;;5017407;28;20201;-80
2022/04/16 04:49:44;;;;;;;65.53;25.10;;;6.20;99.90;;;;;;5017548;28;20187;-80
2022/04/16 04:52:09;;;;;;;66.40;25.10;;;6.20;99.90;;;;;;5017226;28;20258;-81
2022/04/16 04:54:35;;;;;;;67.70;23.70;;;6.20;99.90;;;;;;5017545;28;20210;-81
2022/04/16 04:57:02;;;;;;;74.80;27.50;;;6.20;99.90;;;;;;5016578;28;20291;-80
2022/04/16 04:59:28;;;;;;;76.27;25.90;;;6.30;99.90;;;;;;5017398;28;20168;-81
2022/04/16 05:01:54;;;;;;;68.03;26.07;;;6.30;99.90;;;;;;5017283;28;20225;-80
2022/04/16 05:04:20;;;;;;;67.70;24.70;;;6.40;99.90;;;;;;5017218;28;20187;-80
2022/04/16 05:06:45;;;;;;;63.60;25.00;;;6.40;99.90;;;;;;5017474;28;20287;-81
2022/04/16 05:09:11;;;;;;;70.17;24.90;;;6.40;99.90;;;;;;5017295;28;20263;-81
2022/04/16 05:11:37;;;;;;;60.67;24.17;;;6.40;99.90;;;;;;5017854;28;20172;-81
2022/04/16 05:14:03;;;;;;;69.97;24.00;;;6.40;99.90;;;;;;5018241;28;20201;-81
2022/04/16 05:16:29;;;;;;;70.77;24.23;;;6.40;99.90;;;;;;5017998;28;20220;-81
2022/04/16 05:18:54;;;;;;;69.23;25.67;;;6.40;99.90;;;;;;5034825;28;20290;-82
2022/04/16 05:21:20;;;;;;;58.60;23.73;;;6.40;99.90;;;;;;5017810;28;20178;-81
2022/04/16 05:23:46;;;;;;;58.23;23.33;;;6.40;99.90;;;;;;5017778;28;20284;-82
2022/04/16 05:26:12;;;;;;;56.33;23.73;;;6.50;99.90;;;;;;5018554;28;20204;-82
2022/04/16 05:28:38;;;;;;;59.03;22.87;;;6.50;99.90;;;;;;5017366;28;20268;-81
2022/04/16 05:31:06;;;;;;;60.87;22.83;;;6.60;99.90;;;;;;5017550;28;20185;-81
2022/04/16 05:36:16;;;;;;;42.57;18.77;;;6.90;99.90;;;;;;5035401;28;20299;-82
2022/04/16 05:38:42;;;;;;;45.50;18.50;;;7.00;99.90;;;;;;5016710;28;20173;-80
2022/04/16 05:41:08;;;;;;;37.73;17.90;;;7.00;99.90;;;;;;5016353;28;20185;-81
2022/04/16 05:43:33;;;;;;;38.67;16.47;;;7.10;99.90;;;;;;5016336;28;20180;-81
2022/04/16 05:45:59;;;;;;;38.33;16.93;;;7.10;99.90;;;;;;5016404;28;20239;-80
2022/04/16 05:48:25;;;;;;;41.93;15.30;;;7.30;99.90;;;;;;5016326;28;20174;-81
2022/04/16 05:50:51;;;;;;;33.33;16.30;;;7.40;99.90;;;;;;5016369;28;20269;-81
2022/04/16 05:53:17;;;;;;;30.40;14.80;;;7.60;99.90;;;;;;5015930;28;20244;-81
2022/04/16 05:55:47;;;;;;;28.97;13.77;;;7.80;99.90;;;;;;5016196;28;20276;-80
2022/04/16 05:58:14;;;;;;;28.73;13.73;;;7.90;99.90;;;;;;5016226;28;20181;-81
2022/04/16 06:00:40;;;;;;;25.73;11.93;;;7.80;99.90;;;;;;5015989;28;20178;-81
2022/04/16 06:03:06;;;;;;;26.77;12.70;;;7.90;99.90;;;;;;5015874;28;20174;-81
2022/04/16 06:05:32;;;;;;;30.90;11.93;;;8.20;99.90;;;;;;5015829;28;20741;-81
2022/04/16 06:07:58;;;;;;;25.80;12.77;;;8.20;99.90;;;;;;5016099;28;20177;-80
2022/04/16 06:10:24;;;;;;;26.17;11.33;;;8.50;99.90;;;;;;5014993;28;20212;-80
2022/04/16 06:12:50;;;;;;;22.97;10.67;;;8.60;99.90;;;;;;5015421;28;20676;-81
2022/04/16 06:15:15;;;;;;;27.00;11.47;;;8.70;99.90;;;;;;5015839;28;20644;-80
2022/04/16 06:17:41;;;;;;;25.27;11.67;;;8.40;99.90;;;;;;5015389;28;20172;-79
2022/04/16 06:20:08;;;;;;;26.30;12.13;;;8.50;99.90;;;;;;5015809;28;20178;-79
2022/04/16 06:22:34;;;;;;;25.53;11.10;;;8.80;99.90;;;;;;5015473;28;20627;-80
2022/04/16 06:25:00;;;;;;;26.47;11.60;;;9.00;99.90;;;;;;5016199;28;20648;-80
2022/04/16 06:27:26;;;;;;;20.33;10.13;;;9.30;99.90;;;;;;5015418;28;20731;-80
2022/04/16 06:29:52;;;;;;;27.07;11.40;;;9.30;99.90;;;;;;5016035;28;20178;-81
2022/04/16 06:32:17;;;;;;;21.17;10.40;;;8.80;99.90;;;;;;5014926;28;20176;-81
2022/04/16 06:34:43;;;;;;;24.53;10.97;;;8.90;99.90;;;;;;5015324;28;20209;-80
2022/04/16 06:37:09;;;;;;;24.20;11.03;;;9.40;99.90;;;;;;5015176;28;20195;-80
2022/04/16 06:39:34;;;;;;;22.00;10.40;;;9.70;99.90;;;;;;5015178;28;20220;-81
2022/04/16 06:42:00;;;;;;;20.20;9.23;;;9.80;99.90;;;;;;5015153;28;20179;-81
2022/04/16 06:44:26;;;;;;;18.73;8.80;;;10.20;99.90;;;;;;5033231;28;20573;-83
2022/04/16 06:46:52;;;;;;;17.17;9.13;;;10.20;99.90;;;;;;5015809;28;20194;-82
2022/04/16 06:49:17;;;;;;;17.07;8.27;;;10.00;99.90;;;;;;5015606;28;20213;-82
2022/04/16 06:51:43;;;;;;;19.00;9.60;;;10.30;99.90;;;;;;5015279;28;20188;-82
2022/04/16 06:54:09;;;;;;;15.73;8.17;;;10.60;99.90;;;;;;5015627;28;20239;-83
2022/04/16 06:56:35;;;;;;;16.93;8.23;;;10.60;99.90;;;;;;5016169;28;20194;-81
2022/04/16 06:59:01;;;;;;;12.07;7.07;;;10.70;99.90;;;;;;5016144;28;20268;-82
2022/04/16 07:01:26;;;;;;;14.27;7.60;;;10.60;99.90;;;;;;5016402;28;20281;-84
2022/04/16 07:03:52;;;;;;;13.40;7.37;;;11.00;99.90;;;;;;5016013;28;20228;-82
2022/04/16 07:06:18;;;;;;;14.73;7.33;;;10.50;99.90;;;;;;5015414;28;20701;-82
2022/04/16 07:08:44;;;;;;;15.17;7.60;;;11.10;99.90;;;;;;5015225;28;20178;-82
2022/04/16 07:11:09;;;;;;;11.33;6.87;;;11.20;99.90;;;;;;5015241;28;20266;-82
2022/04/16 07:13:35;;;;;;;12.07;7.07;;;11.10;99.90;;;;;;5014451;28;20288;-83
2022/04/16 07:16:00;;;;;;;13.57;6.77;;;11.50;99.90;;;;;;5015639;28;20600;-84
2022/04/16 07:18:26;;;;;;;12.07;6.27;;;11.60;99.90;;;;;;5015246;28;20189;-84
2022/04/16 07:20:52;;;;;;;10.70;5.97;;;11.40;99.90;;;;;;5015409;28;20174;-81
2022/04/16 07:23:17;;;;;;;11.70;6.07;;;11.40;99.90;;;;;;5015175;28;20182;-81
2022/04/16 07:25:43;;;;;;;13.10;6.50;;;11.10;99.90;;;;;;5015591;28;20202;-83
2022/04/16 07:28:11;;;;;;;10.43;6.00;;;11.30;99.90;;;;;;5015193;28;20189;-82
2022/04/16 07:30:36;;;;;;;14.73;5.67;;;11.90;99.90;;;;;;5015741;28;20553;-82
2022/04/16 07:33:02;;;;;;;12.57;6.33;;;11.90;99.90;;;;;;5015648;28;20210;-81
2022/04/16 07:35:28;;;;;;;10.77;6.13;;;11.80;99.90;;;;;;5015451;28;20200;-82
2022/04/16 07:37:57;;;;;;;10.13;6.67;;;11.80;99.90;;;;;;5015939;28;20174;-81
2022/04/16 07:40:24;;;;;;;10.73;5.23;;;12.20;99.90;;;;;;5015932;28;20734;-83
2022/04/16 07:42:50;;;;;;;10.30;5.63;;;12.40;99.90;;;;;;5015139;28;20643;-81
2022/04/16 07:45:16;;;;;;;11.77;5.67;;;12.00;99.90;;;;;;5014384;28;20184;-83
2022/04/16 07:47:42;;;;;;;7.43;5.20;;;11.80;99.90;;;;;;5015376;28;20174;-82
2022/04/16 07:50:08;;;;;;;8.33;4.70;;;11.60;99.90;;;;;;5014942;28;20634;-82
2022/04/16 07:52:34;;;;;;;7.87;4.70;;;11.50;99.90;;;;;;5032297;28;20261;-82
2022/04/16 07:54:59;;;;;;;9.97;5.30;;;11.90;99.90;;;;;;5015303;28;20269;-83
2022/04/16 07:57:25;;;;;;;8.60;4.70;;;12.00;99.90;;;;;;5015034;28;20627;-83
2022/04/16 07:59:52;;;;;;;9.70;4.90;;;11.90;99.90;;;;;;5015013;28;20550;-81
2022/04/16 08:02:18;;;;;;;8.07;4.37;;;12.20;99.90;;;;;;5016087;28;20178;-84
2022/04/16 08:04:43;;;;;;;10.20;4.70;;;12.20;99.90;;;;;;5018359;28;20602;-82
2022/04/16 08:07:09;;;;;;;8.90;4.43;;;12.50;99.90;;;;;;5018210;28;20519;-84
2022/04/16 08:09:35;;;;;;;8.17;4.20;;;12.60;99.90;;;;;;5018272;28;20547;-82
2022/04/16 08:12:01;;;;;;;7.07;4.10;;;13.30;99.50;;;;;;5018236;28;20228;-82
2022/04/16 08:14:30;;;;;;;7.13;3.67;;;12.70;97.60;;;;;;5018316;28;20324;-82
2022/04/16 08:16:56;;;;;;;6.33;3.27;;;12.40;95.80;;;;;;5018017;28;20193;-82
2022/04/16 08:19:23;;;;;;;7.30;4.17;;;12.90;95.10;;;;;;5036765;28;20713;-83
2022/04/16 08:21:49;;;;;;;6.40;3.67;;;12.50;94.80;;;;;;5016516;28;20176;-83
2022/04/16 08:24:38;;;;;;;6.03;3.57;;;12.60;94.40;;;;;;5016118;28;20621;-83
2022/04/16 08:27:00;;;;;;;7.30;4.20;;;12.80;95.10;;;;;;5035250;28;20203;-83
2022/04/16 08:29:26;;;;;;;4.50;3.53;;;12.60;93.90;;;;;;5017396;28;20208;-83
2022/04/16 08:31:51;;;;;;;4.77;3.50;;;12.80;93.30;;;;;;5016971;28;20246;-83
2022/04/16 08:34:17;;;;;;;5.13;3.23;;;13.40;91.30;;;;;;5021622;28;20296;-84
2022/04/16 08:36:43;;;;;;;5.07;3.27;;;13.10;91.20;;;;;;5021065;28;20694;-83
2022/04/16 08:39:08;;;;;;;3.67;2.70;;;13.10;90.20;;;;;;5021275;28;20178;-84
2022/04/16 08:41:35;;;;;;;4.83;2.77;;;13.10;89.60;;;;;;5021065;28;20196;-82
2022/04/16 08:44:00;;;;;;;6.07;3.07;;;13.40;89.00;;;;;;5020446;28;20197;-81
2022/04/16 08:46:30;;;;;;;2.60;2.40;;;13.20;81.30;;;;;;5021169;28;20197;-82
2022/04/16 08:48:58;;;;;;;6.97;2.80;;;12.90;84.10;;;;;;5020348;28;20228;-82
2022/04/16 08:51:26;;;;;;;4.10;2.90;;;13.20;84.10;;;;;;5021301;28;20178;-82
2022/04/16 08:53:52;;;;;;;3.37;2.60;;;13.40;82.70;;;;;;5019020;28;20229;-82
2022/04/16 08:56:17;;;;;;;3.87;2.60;;;13.00;81.20;;;;;;5018194;28;20320;-81
2022/04/16 08:58:43;;;;;;;3.47;2.50;;;13.70;81.10;;;;;;5018123;28;20206;-83
2022/04/16 09:01:09;;;;;;;4.30;2.60;;;12.60;79.50;;;;;;5017460;28;20170;-81
2022/04/16 09:03:36;;;;;;;3.23;2.47;;;13.80;83.20;;;;;;5018014;28;20312;-83
2022/04/16 09:06:03;;;;;;;3.33;2.73;;;12.50;82.90;;;;;;5017191;28;20205;-82
2022/04/16 09:08:34;;;;;;;4.10;2.90;;;13.20;81.70;;;;;;5017268;28;20170;-83
2022/04/16 09:11:12;;;;;;;5.07;2.50;;;12.90;79.80;;;;;;5017055;28;20185;-82
2022/04/16 09:13:54;;;;;;;3.50;2.67;;;13.70;79.60;;;;;;5016903;28;20562;-82
2022/04/16 09:16:20;;;;;;;6.90;2.80;;;13.40;77.90;;;;;;5017305;28;20208;-83
2022/04/16 09:18:47;;;;;;;3.93;2.60;;;12.90;75.60;;;;;;5016245;28;20199;-83
2022/04/16 09:21:13;;;;;;;5.27;2.67;;;12.90;73.50;;;;;;5016353;28;20229;-83
2022/04/16 09:23:47;;;;;;;4.27;2.50;;;12.90;74.30;;;;;;5017450;28;20189;-83
2022/04/16 09:26:28;;;;;;;2.50;2.30;;;12.70;72.20;;;;;;5017714;28;20204;-83
2022/04/16 09:28:54;;;;;;;3.00;2.43;;;13.40;72.50;;;;;;5017613;28;20184;-82
2022/04/16 09:31:27;;;;;;;4.80;2.40;;;13.40;73.80;;;;;;5016785;28;20265;-81
2022/04/16 09:33:53;;;;;;;2.43;2.20;;;13.80;70.30;;;;;;5016474;28;20256;-82
2022/04/16 09:36:24;;;;;;;3.00;2.00;;;13.10;67.40;;;;;;5016768;28;20229;-82
2022/04/16 09:38:50;;;;;;;3.67;2.07;;;13.30;66.90;;;;;;5016787;28;20182;-82
2022/04/16 09:41:16;;;;;;;2.40;2.20;;;13.50;68.60;;;;;;5017867;28;20645;-82
2022/04/16 09:43:41;;;;;;;3.33;2.10;;;13.90;69.00;;;;;;5017170;28;20178;-81
2022/04/16 09:46:11;;;;;;;4.23;2.23;;;13.60;72.00;;;;;;5016469;28;20202;-83
2022/04/16 09:48:38;;;;;;;4.07;1.97;;;13.40;68.40;;;;;;5016714;28;20273;-83
2022/04/16 09:51:07;;;;;;;2.63;2.17;;;14.30;68.40;;;;;;5016495;28;20178;-84
2022/04/16 09:53:36;;;;;;;1.90;1.70;;;13.80;65.90;;;;;;5016575;28;20197;-83
2022/04/16 09:56:06;;;;;;;2.53;1.90;;;13.60;63.20;;;;;;5016644;28;20661;-84
2022/04/16 09:58:37;;;;;;;2.10;1.90;;;13.40;63.40;;;;;;5016414;28;20174;-82
2022/04/16 10:01:03;;;;;;;2.40;2.00;;;13.40;66.40;;;;;;5016402;28;20166;-83
2022/04/16 10:03:29;;;;;;;2.60;1.77;;;13.30;64.00;;;;;;5016508;28;20639;-83
2022/04/16 10:05:59;;;;;;;2.63;2.03;;;13.20;63.70;;;;;;5016447;28;20666;-81
2022/04/16 10:08:28;;;;;;;2.13;2.00;;;13.60;62.80;;;;;;5016408;28;20182;-82
2022/04/16 10:10:55;;;;;;;2.13;1.90;;;13.60;61.50;;;;;;5019149;28;20175;-84
2022/04/16 10:13:22;;;;;;;2.87;2.10;;;13.90;61.20;;;;;;5018693;28;20230;-83
2022/04/16 10:16:26;;;;;;;2.13;1.93;;;13.90;66.30;;;;;;5018268;28;20221;-82
2022/04/16 10:18:51;;;;;;;2.10;2.00;;;13.80;65.60;;;;;;5036888;28;20189;-82
2022/04/16 10:21:17;;;;;;;2.00;1.90;;;14.00;67.30;;;;;;5019048;28;20174;-83
2022/04/16 10:23:43;;;;;;;3.83;1.80;;;14.00;67.30;;;;;;5017754;28;20538;-81
2022/04/16 10:26:11;;;;;;;1.70;1.27;;;14.40;63.10;;;;;;5018832;28;20566;-85
2022/04/16 10:28:42;;;;;;;1.53;1.50;;;13.80;61.30;;;;;;5020220;28;20631;-84
2022/04/16 10:31:28;;;;;;;1.53;1.43;;;14.10;58.80;;;;;;5017443;28;20181;-83
2022/04/16 10:34:05;;;;;;;2.87;1.40;;;15.50;57.10;;;;;;5017089;28;20225;-84
2022/04/16 10:36:32;;;;;;;3.37;1.40;;;15.70;59.30;;;;;;5017621;28;20630;-83
2022/04/16 10:39:00;;;;;;;1.93;1.60;;;14.50;57.80;;;;;;5017577;28;20631;-83
2022/04/16 10:41:27;;;;;;;1.63;1.50;;;14.50;60.80;;;;;;5018538;28;20170;-83
2022/04/16 10:43:57;;;;;;;1.93;1.43;;;14.40;61.20;;;;;;5017790;28;20539;-82
2022/04/16 10:46:23;;;;;;;1.30;1.30;;;14.60;61.60;;;;;;5018769;28;20192;-82
2022/04/16 10:48:49;;;;;;;1.30;1.20;;;15.10;62.50;;;;;;5020351;28;20185;-82
2022/04/16 10:51:23;;;;;;;2.23;1.40;;;14.50;59.30;;;;;;5012409;28;20240;-82
2022/04/16 10:53:49;;;;;;;1.10;1.10;;;14.50;60.40;;;;;;4998779;28;20213;-81
2022/04/16 10:56:22;;;;;;;1.40;1.30;;;14.60;63.20;;;;;;4999604;28;20198;-83
2022/04/16 10:59:00;;;;;;;1.23;1.23;;;14.50;57.90;;;;;;4998961;28;20182;-82
2022/04/16 11:01:27;;;;;;;1.27;1.27;;;14.50;62.80;;;;;;4999288;28;20166;-82
2022/04/16 11:03:56;;;;;;;1.00;1.00;;;14.80;59.00;;;;;;4999799;28;20594;-83
2022/04/16 11:06:35;;;;;;;1.00;1.00;;;14.30;54.80;;;;;;5000162;28;20197;-82
2022/04/16 11:09:02;;;;;;;1.30;1.00;;;14.50;57.70;;;;;;5000334;28;20225;-83
2022/04/16 11:11:27;;;;;;;0.90;0.90;;;14.90;59.50;;;;;;4999477;28;20242;-83
2022/04/16 11:13:56;;;;;;;1.37;1.27;;;14.60;56.60;;;;;;5000358;28;20230;-83
2022/04/16 11:16:22;;;;;;;2.27;1.27;;;15.10;58.30;;;;;;5001037;28;20556;-84
2022/04/16 11:18:48;;;;;;;1.10;1.10;;;14.40;58.70;;;;;;4999975;28;20193;-83
2022/04/16 11:21:17;;;;;;;1.50;1.13;;;14.40;55.70;;;;;;5000576;28;20707;-83
2022/04/16 11:23:44;;;;;;;1.23;1.13;;;14.70;58.40;;;;;;4999998;28;20180;-82
2022/04/16 11:34:32;;;;;;;1.30;1.20;;;14.80;58.90;;;;;;5057497;28;20204;-80
2022/04/16 11:37:01;;;;;;;1.57;1.00;;;14.70;57.10;;;;;;5038615;28;20189;-81
2022/04/16 11:39:31;;;;;;;1.17;1.00;;;14.50;59.00;;;;;;5037939;28;20175;-82
2022/04/16 11:42:02;;;;;;;1.77;1.30;;;14.80;59.20;;;;;;5037636;28;20201;-83
2022/04/16 11:44:42;;;;;;;1.77;1.20;;;14.80;60.50;;;;;;5038205;28;20546;-81
2022/04/16 11:47:08;;;;;;;1.00;1.00;;;15.10;65.50;;;;;;5037729;28;20192;-82
2022/04/16 11:49:39;;;;;;;1.03;1.03;;;15.40;64.10;;;;;;5037870;28;20181;-82
2022/04/16 11:52:05;;;;;;;1.13;1.13;;;15.40;54.20;;;;;;5034963;28;20177;-82
2022/04/16 11:54:31;;;;;;;1.07;1.07;;;15.50;55.30;;;;;;5034650;28;20627;-81
2022/04/16 11:56:58;;;;;;;2.63;0.97;;;16.10;53.60;;;;;;5034768;28;20224;-82
2022/04/16 11:59:24;;;;;;;0.73;0.73;;;17.70;57.10;;;;;;5035226;28;20170;-81
2022/04/16 12:02:09;;;;;;;1.80;1.30;;;17.10;51.70;;;;;;5034720;28;20200;-81
2022/04/16 12:04:42;;;;;;;5.03;0.87;;;16.80;55.20;;;;;;5035043;28;20180;-81
2022/04/16 12:07:16;;;;;;;1.17;1.07;;;15.20;54.00;;;;;;5035173;28;20192;-81
2022/04/16 12:09:49;;;;;;;1.00;1.00;;;15.00;56.80;;;;;;5038656;28;20176;-81
2022/04/16 12:12:23;;;;;;;0.60;0.60;;;15.40;56.60;;;;;;5037816;28;20249;-82
2022/04/16 12:14:51;;;;;;;2.37;1.10;;;15.80;58.30;;;;;;5039903;28;20238;-82
2022/04/16 12:17:29;;;;;;;0.90;0.90;;;14.80;56.60;;;;;;5038853;28;20251;-81
2022/04/16 12:20:02;;;;;;;0.90;0.90;;;14.70;56.70;;;;;;5038584;28;20193;-82
2022/04/16 12:22:28;;;;;;;1.23;1.10;;;15.00;56.80;;;;;;5038995;28;20176;-81
2022/04/16 12:24:53;;;;;;;2.90;1.17;;;14.70;55.90;;;;;;5037975;28;20173;-82
2022/04/16 12:27:28;;;;;;;4.10;1.20;;;14.70;58.70;;;;;;5037557;28;20200;-81
2022/04/16 12:29:59;;;;;;;2.03;0.97;;;15.50;57.00;;;;;;5038417;28;20728;-82
2022/04/16 12:32:27;;;;;;;3.10;0.90;;;15.00;57.20;;;;;;5039196;28;20222;-81
2022/04/16 12:34:53;;;;;;;1.20;1.17;;;14.70;56.70;;;;;;5039629;28;20193;-80
2022/04/16 12:37:20;;;;;;;1.53;1.00;;;14.50;59.50;;;;;;5034552;28;20665;-81
2022/04/16 12:39:46;;;;;;;1.50;0.93;;;14.60;58.50;;;;;;5018635;28;20228;-81
2022/04/16 12:42:12;;;;;;;0.87;0.87;;;14.60;57.30;;;;;;5019817;28;20172;-81
2022/04/16 12:44:37;;;;;;;1.37;1.03;;;14.60;58.10;;;;;;5020047;28;20743;-82
2022/04/16 12:47:03;;;;;;;2.87;1.13;;;14.50;57.50;;;;;;5020243;28;20695;-82
2022/04/16 12:49:29;;;;;;;1.87;1.03;;;14.10;56.70;;;;;;5019831;28;20201;-81
2022/04/16 12:51:54;;;;;;;2.00;1.30;;;13.80;58.00;;;;;;5018941;28;20197;-82
2022/04/16 12:54:20;;;;;;;2.47;1.10;;;14.00;60.20;;;;;;5020019;28;20566;-83
2022/04/16 12:56:47;;;;;;;2.93;0.90;;;14.30;61.10;;;;;;5019954;28;20203;-82
2022/04/16 12:59:15;;;;;;;1.13;1.03;;;14.10;58.20;;;;;;5019975;28;20184;-81
2022/04/16 13:01:41;;;;;;;1.00;1.00;;;14.20;59.90;;;;;;5018981;28;20216;-81
2022/04/16 13:04:07;;;;;;;1.03;0.90;;;14.70;60.60;;;;;;5019014;28;20182;-81